Pleasant Valley, New York
Current Conditions -  °F | °C
As of 12:53 AM on Thursday 23 Oct 2014 (Local Time) from KPOU Reporting Station
Heavy Rain Heavy Rain  
Wind Chill: 50°   Ceiling: 1400
Heat Index: 50°   Visibility: 5mi
Dew Point: 46°   Wind: 14mph
Humidity: 86%   Direction: 360°N
Pressure: 29.83"   Gusts: 22mph
Location:  41.75°N, 73.82°W
Report Text: KPOU 230453Z AUTO 36012G19KT 5SM +RA BR BKN014 BKN019 OVC043 10/08 A2983 RMK AO2 SLP097 P0005 T01000078 401170100 TSNO
Loading
Personal Weather Stations






























Interactive Weather Map
Tropical Storm Tracking
New forecast layout! Learn more

10-Day Weather Forecast

Advertisements
Track Severe Weather on mobile